Jamaica, Virginia
Current Conditions -  °F | °C
As of 3:15 PM on Sunday 21 Dec 2014 (Local Time) from KFYJ Reporting Station
Clear Clear  
Wind Chill: 46°   Ceiling: Unl
Heat Index: 46°   Visibility: 10mi
Dew Point: 26°   Wind: 3mph
Humidity: 44%   Direction: 220°SW
Pressure: 30.29"   Gusts: NA
Location:  37.72°N, 76.7°W
Report Text: KFYJ 212015Z AUTO 22003KT 10SM CLR 08/M04 A3029 RMK AO2 T00801036
Loading
Personal Weather Stations






























Interactive Weather Map New forecast layout! Learn more

10-Day Weather Forecast

Advertisements
Track Severe Weather on mobile